sensor_id;sensor_type;location;lat;lon;timestamp;pressure;altitude;pressure_sealevel;temperature;humidity
50650;BME280;36621;60.058;30.346;2022-12-05T00:03:31;103009.53;;;-1.35;62.94
50650;BME280;36621;60.058;30.346;2022-12-05T00:11:10;103006.59;;;-1.32;63.40
50650;BME280;36621;60.058;30.346;2022-12-05T00:18:43;103052.66;;;-0.98;62.87
50650;BME280;36621;60.058;30.346;2022-12-05T00:26:17;103014.78;;;-1.14;62.61
50650;BME280;36621;60.058;30.346;2022-12-05T00:33:50;103051.25;;;-0.92;62.27
50650;BME280;36621;60.058;30.346;2022-12-05T00:41:27;103024.72;;;-0.95;62.57
50650;BME280;36621;60.058;30.346;2022-12-05T00:49:05;102988.97;;;-1.15;62.64
50650;BME280;36621;60.058;30.346;2022-12-05T00:56:43;102980.19;;;-1.27;62.92
50650;BME280;36621;60.058;30.346;2022-12-05T01:04:23;102974.44;;;-1.23;63.20
50650;BME280;36621;60.058;30.346;2022-12-05T01:12:02;103016.50;;;-0.84;62.38
50650;BME280;36621;60.058;30.346;2022-12-05T01:19:35;103020.75;;;-0.81;62.78
50650;BME280;36621;60.058;30.346;2022-12-05T01:27:14;103026.69;;;-0.78;62.91
50650;BME280;36621;60.058;30.346;2022-12-05T01:34:55;102934.91;;;-1.30;62.57
50650;BME280;36621;60.058;30.346;2022-12-05T01:42:28;103006.63;;;-0.93;63.23
50650;BME280;36621;60.058;30.346;2022-12-05T01:50:02;102945.38;;;-1.37;62.84
50650;BME280;36621;60.058;30.346;2022-12-05T01:57:38;102952.00;;;-1.22;62.83
50650;BME280;36621;60.058;30.346;2022-12-05T02:05:17;102919.13;;;-1.24;62.74
50650;BME280;36621;60.058;30.346;2022-12-05T02:12:50;102945.38;;;-1.08;62.70
50650;BME280;36621;60.058;30.346;2022-12-05T02:20:42;102992.50;;;-0.66;62.15
50650;BME280;36621;60.058;30.346;2022-12-05T02:28:37;102936.91;;;-0.93;62.10
50650;BME280;36621;60.058;30.346;2022-12-05T02:36:18;102919.84;;;-1.12;61.34
50650;BME280;36621;60.058;30.346;2022-12-05T02:43:58;102978.13;;;-0.65;61.83
50650;BME280;36621;60.058;30.346;2022-12-05T02:51:41;102958.63;;;-0.67;61.91
50650;BME280;36621;60.058;30.346;2022-12-05T02:59:15;102899.38;;;-1.13;61.85
50650;BME280;36621;60.058;30.346;2022-12-05T03:06:53;102898.94;;;-0.98;61.95
50650;BME280;36621;60.058;30.346;2022-12-05T03:14:31;102918.13;;;-0.83;61.61
50650;BME280;36621;60.058;30.346;2022-12-05T03:22:07;102902.59;;;-0.90;61.46
50650;BME280;36621;60.058;30.346;2022-12-05T03:29:45;102947.59;;;-0.54;61.52
50650;BME280;36621;60.058;30.346;2022-12-05T03:37:26;102947.91;;;-0.20;60.77
50650;BME280;36621;60.058;30.346;2022-12-05T03:45:25;102946.84;;;-0.46;60.72
50650;BME280;36621;60.058;30.346;2022-12-05T03:53:18;102882.97;;;-0.80;61.41
50650;BME280;36621;60.058;30.346;2022-12-05T04:01:45;102867.41;;;-0.77;61.43
50650;BME280;36621;60.058;30.346;2022-12-05T04:19:33;102914.38;;;-0.43;61.26
50650;BME280;36621;60.058;30.346;2022-12-05T04:28:07;102895.84;;;-0.46;61.26
50650;BME280;36621;60.058;30.346;2022-12-05T04:46:15;102886.22;;;-0.39;61.11
50650;BME280;36621;60.058;30.346;2022-12-05T05:03:29;102899.91;;;-0.32;61.77
50650;BME280;36621;60.058;30.346;2022-12-05T05:22:18;102842.25;;;-0.66;61.12
50650;BME280;36621;60.058;30.346;2022-12-05T12:35:20;102762.03;;;0.85;60.82
50650;BME280;36621;60.058;30.346;2022-12-05T13:36:26;102733.56;;;0.48;61.50
50650;BME280;36621;60.058;30.346;2022-12-05T14:03:52;102595.78;;;-0.07;60.76
50650;BME280;36621;60.058;30.346;2022-12-05T15:04:15;102622.25;;;0.32;61.11
50650;BME280;36621;60.058;30.346;2022-12-05T15:12:14;102603.06;;;0.01;61.10
50650;BME280;36621;60.058;30.346;2022-12-05T15:20:10;102618.66;;;0.24;61.09
50650;BME280;36621;60.058;30.346;2022-12-05T15:28:22;102635.47;;;0.26;60.88
50650;BME280;36621;60.058;30.346;2022-12-05T15:37:43;102633.09;;;0.23;61.24
50650;BME280;36621;60.058;30.346;2022-12-05T15:45:28;102599.00;;;-0.03;60.92
50650;BME280;36621;60.058;30.346;2022-12-05T16:02:42;102567.56;;;-0.11;60.64
50650;BME280;36621;60.058;30.346;2022-12-05T16:10:57;102618.66;;;0.24;60.76
50650;BME280;36621;60.058;30.346;2022-12-05T16:39:24;102491.59;;;-0.74;60.74
50650;BME280;36621;60.058;30.346;2022-12-05T17:05:12;102549.41;;;-0.35;60.96
50650;BME280;36621;60.058;30.346;2022-12-05T18:16:48;102353.50;;;-1.14;61.09
50650;BME280;36621;60.058;30.346;2022-12-05T18:25:20;102429.22;;;-0.49;60.66
50650;BME280;36621;60.058;30.346;2022-12-05T19:45:16;102319.72;;;-0.80;59.98
